createdAt,value
2018-07-05T00:02:46.962Z,61.51
2018-07-05T00:09:15.548Z,61.56
2018-07-05T00:15:43.865Z,62.32
2018-07-05T00:22:12.740Z,61.84
2018-07-05T00:28:40.986Z,62.67
2018-07-05T00:35:09.616Z,62.69
2018-07-05T00:41:38.025Z,62.73
2018-07-05T00:48:06.792Z,63.48
2018-07-05T00:54:35.232Z,63.25
2018-07-05T01:01:03.839Z,64.74
2018-07-05T01:07:32.197Z,64.29
2018-07-05T01:14:00.847Z,65.03
2018-07-05T01:20:29.684Z,65.63
2018-07-05T01:26:58.213Z,66.26
2018-07-05T01:33:26.853Z,66.34
2018-07-05T01:39:55.595Z,65.70
2018-07-05T01:46:24.161Z,65.97
2018-07-05T01:52:53.035Z,64.71
2018-07-05T01:59:15.752Z,66.50
2018-07-05T02:05:44.215Z,66.12
2018-07-05T02:12:12.837Z,66.03
2018-07-05T02:18:41.548Z,67.74
2018-07-05T02:25:10.049Z,65.97
2018-07-05T02:31:38.800Z,67.95
2018-07-05T02:38:12.476Z,68.28
2018-07-05T02:44:41.482Z,69.24
2018-07-05T02:51:09.928Z,69.68
2018-07-05T02:57:38.383Z,69.82
2018-07-05T03:04:06.930Z,69.64
2018-07-05T03:10:35.369Z,70.39
2018-07-05T03:17:04.196Z,70.34
2018-07-05T03:23:32.780Z,70.58
2018-07-05T03:30:01.411Z,71.45
2018-07-05T03:36:30.016Z,72.45
2018-07-05T03:42:58.603Z,71.17
2018-07-05T03:49:27.231Z,70.87
2018-07-05T03:55:55.665Z,71.01
2018-07-05T04:02:24.214Z,70.65
2018-07-05T04:08:52.378Z,68.91
2018-07-05T04:15:21.072Z,69.51
2018-07-05T04:21:49.735Z,68.45
2018-07-05T04:28:18.492Z,68.53
2018-07-05T04:34:47.114Z,69.03
2018-07-05T04:41:15.586Z,69.50
2018-07-05T04:47:44.093Z,67.58
2018-07-05T04:54:12.690Z,66.83
2018-07-05T05:00:41.408Z,67.20
2018-07-05T05:07:10.096Z,65.79
2018-07-05T05:13:38.508Z,64.86
2018-07-05T05:20:07.126Z,64.33
2018-07-05T05:26:35.866Z,64.77
2018-07-05T05:33:04.430Z,65.06
2018-07-05T05:39:32.799Z,63.51
2018-07-05T05:46:01.558Z,62.95
2018-07-05T05:52:30.121Z,63.66
2018-07-05T05:58:58.712Z,60.38
2018-07-05T06:05:27.229Z,58.72
2018-07-05T06:11:56.224Z,58.40
2018-07-05T06:18:24.470Z,58.03
2018-07-05T06:24:53.700Z,53.80
2018-07-05T06:31:22.531Z,54.09
2018-07-05T06:37:51.785Z,53.66
2018-07-05T06:44:20.684Z,54.12
2018-07-05T06:50:49.386Z,52.97
2018-07-05T06:57:18.013Z,51.23
2018-07-05T07:03:46.865Z,51.66
2018-07-05T07:10:15.367Z,50.14
2018-07-05T07:16:43.899Z,49.33
2018-07-05T07:23:12.573Z,48.49
2018-07-05T07:29:41.395Z,45.79
2018-07-05T07:36:09.959Z,44.03
2018-07-05T07:42:20.081Z,43.13
2018-07-05T07:48:23.997Z,42.47
2018-07-05T07:54:27.542Z,42.14
2018-07-05T08:00:31.136Z,42.46
2018-07-05T08:06:34.687Z,43.78
2018-07-05T08:12:38.246Z,38.22
2018-07-05T08:18:41.808Z,39.08
2018-07-05T08:24:45.344Z,39.52
2018-07-05T08:30:49.476Z,38.15
2018-07-05T08:36:53.640Z,38.78
2018-07-05T08:42:57.166Z,38.52
2018-07-05T08:49:00.738Z,37.42
2018-07-05T08:55:04.286Z,36.09
2018-07-05T09:01:07.833Z,33.86
2018-07-05T09:07:11.381Z,33.56
2018-07-05T09:13:15.107Z,32.72
2018-07-05T09:19:18.651Z,35.07
2018-07-05T09:25:22.297Z,31.95
2018-07-05T09:31:26.082Z,31.03
2018-07-05T09:37:29.719Z,31.46
2018-07-05T09:43:33.263Z,30.75
2018-07-05T09:49:36.792Z,30.32
2018-07-05T09:55:40.326Z,31.25
2018-07-05T10:01:43.947Z,31.08
2018-07-05T10:07:47.522Z,31.26
2018-07-05T10:13:51.397Z,32.70
2018-07-05T10:19:54.874Z,31.91
2018-07-05T10:25:58.425Z,30.50
2018-07-05T10:32:20.799Z,31.05
2018-07-05T10:38:30.737Z,31.07
2018-07-05T10:44:53.095Z,32.24
2018-07-05T10:51:22.317Z,31.79
2018-07-05T10:57:50.731Z,31.39
2018-07-05T11:04:19.383Z,29.46
2018-07-05T11:10:47.917Z,29.83
2018-07-05T11:17:16.419Z,30.98
2018-07-05T11:23:44.787Z,32.49
2018-07-05T11:30:13.328Z,32.43
2018-07-05T11:36:41.938Z,32.37
2018-07-05T11:43:10.622Z,32.00
2018-07-05T11:49:39.276Z,32.81
2018-07-05T11:56:07.929Z,29.58
2018-07-05T12:02:36.613Z,30.61
2018-07-05T12:09:06.295Z,29.05
2018-07-05T12:15:34.790Z,29.68
2018-07-05T12:22:03.240Z,30.50
2018-07-05T12:28:31.998Z,31.62
2018-07-05T12:35:00.390Z,32.88
2018-07-05T12:41:28.999Z,33.08
2018-07-05T12:47:57.405Z,33.86
2018-07-05T12:54:26.057Z,36.12
2018-07-05T13:00:54.523Z,35.64
2018-07-05T13:07:23.184Z,35.58
2018-07-05T13:13:52.090Z,35.24
2018-07-05T13:20:20.421Z,35.86
2018-07-05T13:26:48.969Z,35.83
2018-07-05T13:33:17.713Z,36.17
2018-07-05T13:39:46.602Z,35.72
2018-07-05T13:46:15.292Z,37.24
2018-07-05T13:52:43.809Z,36.02
2018-07-05T13:59:12.348Z,37.22
2018-07-05T14:05:40.856Z,38.16
2018-07-05T14:12:09.572Z,36.43
2018-07-05T14:18:38.143Z,34.57
2018-07-05T14:25:06.954Z,33.76
2018-07-05T14:31:35.335Z,34.32
2018-07-05T14:38:03.575Z,34.33
2018-07-05T14:44:31.989Z,36.61
2018-07-05T14:51:00.353Z,35.91
2018-07-05T14:57:28.973Z,36.42
2018-07-05T15:03:57.333Z,36.51
2018-07-05T15:10:25.974Z,35.34
2018-07-05T15:16:54.537Z,35.26
2018-07-05T15:23:23.326Z,35.20
2018-07-05T15:29:51.773Z,33.45
2018-07-05T15:36:20.837Z,32.82
2018-07-05T15:42:49.275Z,31.66
2018-07-05T15:49:17.857Z,33.02
2018-07-05T15:55:46.379Z,31.87
2018-07-05T16:02:14.914Z,31.49
2018-07-05T16:08:43.469Z,32.09
2018-07-05T16:15:11.952Z,34.46
2018-07-05T16:21:40.469Z,35.87
2018-07-05T16:28:09.017Z,36.45
2018-07-05T16:34:37.703Z,36.01
2018-07-05T16:41:06.305Z,35.30
2018-07-05T16:47:34.741Z,37.02
2018-07-05T16:54:03.200Z,38.41
2018-07-05T17:00:32.047Z,39.56
2018-07-05T17:07:00.675Z,39.76
2018-07-05T17:13:29.206Z,40.22
2018-07-05T17:19:58.230Z,40.51
2018-07-05T17:26:27.010Z,37.16
2018-07-05T17:32:55.595Z,36.56
2018-07-05T17:39:24.268Z,33.42
2018-07-05T17:45:53.320Z,32.12
2018-07-05T17:52:22.117Z,33.95
2018-07-05T17:58:51.397Z,36.14
2018-07-05T18:05:19.922Z,37.04
2018-07-05T18:11:48.476Z,38.00
2018-07-05T18:18:17.136Z,34.94
2018-07-05T18:24:45.700Z,33.49
2018-07-05T18:31:14.307Z,33.28
2018-07-05T18:37:42.892Z,31.93
2018-07-05T18:44:11.414Z,34.09
2018-07-05T18:50:39.962Z,37.07
2018-07-05T18:57:08.575Z,38.12
2018-07-05T19:03:36.911Z,38.57
2018-07-05T19:10:05.552Z,40.03
2018-07-05T19:16:34.149Z,40.63
2018-07-05T19:23:02.496Z,41.52
2018-07-05T19:29:31.181Z,43.08
2018-07-05T19:35:59.971Z,44.72
2018-07-05T19:42:29.222Z,46.89
2018-07-05T19:48:57.972Z,48.41
2018-07-05T19:55:26.626Z,49.70
2018-07-05T20:01:55.168Z,50.67
2018-07-05T20:08:23.886Z,52.09
2018-07-05T20:14:52.381Z,53.74
2018-07-05T20:21:21.321Z,54.91
2018-07-05T20:27:49.856Z,55.29
2018-07-05T20:34:18.381Z,55.60
2018-07-05T20:40:46.889Z,56.90
2018-07-05T20:47:15.373Z,57.51
2018-07-05T20:53:43.904Z,57.57
2018-07-05T21:00:12.344Z,58.22
2018-07-05T21:06:41.055Z,58.63
2018-07-05T21:13:09.645Z,58.90
2018-07-05T21:19:38.196Z,59.11
2018-07-05T21:26:06.920Z,59.78
2018-07-05T21:32:35.285Z,60.68
2018-07-05T21:38:57.807Z,60.83
2018-07-05T21:45:26.068Z,61.53
2018-07-05T21:51:54.474Z,62.19
2018-07-05T21:58:23.311Z,63.20
2018-07-05T22:04:52.037Z,63.00
2018-07-05T22:11:20.909Z,63.46
2018-07-05T22:17:54.978Z,64.31
2018-07-05T22:24:28.531Z,64.96
2018-07-05T22:31:02.388Z,65.28
2018-07-05T22:37:30.945Z,64.92
2018-07-05T22:50:21.389Z,66.06
2018-07-05T22:56:50.099Z,65.57
2018-07-05T23:03:18.659Z,66.20
2018-07-05T23:09:47.683Z,66.12
2018-07-05T23:16:16.196Z,67.29
2018-07-05T23:22:44.721Z,67.83
2018-07-05T23:29:13.109Z,68.11
2018-07-05T23:35:41.623Z,67.69
2018-07-05T23:42:10.313Z,68.50
2018-07-05T23:48:38.735Z,69.19
2018-07-05T23:55:07.257Z,70.08
